Time,TemperatureF,DewpointF,PressureIn,WindDirection,WindDirectionDegrees,WindSpeedMPH,WindSpeedGustMPH,Humidity,HourlyPrecipIn,Conditions,Clouds,dailyrainin,SoftwareType,DateUTC
2012-03-30 08:22:00,34.6,17.9,29.92,ENE,68,0.0,2.0,50,0.00,,---,0.00,VWS V14.01,2012-03-30 14:22:00,
2012-03-30 08:23:00,37.0,19.6,29.91,ENE,62,0.0,0.0,49,0.00,,---,0.00,VWS V14.01,2012-03-30 14:23:00,
2012-03-30 08:28:00,37.7,19.8,29.91,ENE,61,0.0,1.0,48,0.00,,---,0.00,VWS V14.01,2012-03-30 14:28:00,
2012-03-30 08:33:00,38.2,19.8,29.91,ENE,62,2.0,4.0,47,0.00,,---,0.00,VWS V14.01,2012-03-30 14:33:00,
2012-03-30 08:38:00,38.6,20.6,29.90,ENE,62,0.0,1.0,48,0.00,,---,0.00,VWS V14.01,2012-03-30 14:38:00,
2012-03-30 08:43:00,39.4,19.8,29.90,ENE,61,0.0,0.0,45,0.00,,---,0.00,VWS V14.01,2012-03-30 14:43:00,
2012-03-30 08:48:00,40.2,20.6,29.90,ENE,62,1.0,1.0,45,0.00,,---,0.00,VWS V14.01,2012-03-30 14:48:00,
2012-03-30 08:53:00,41.1,20.3,29.88,ENE,61,0.0,0.0,43,0.00,,---,0.00,VWS V14.01,2012-03-30 14:53:00,
2012-03-30 08:58:00,41.9,20.5,29.87,ENE,62,0.0,2.0,42,0.00,,---,0.00,VWS V14.01,2012-03-30 14:58:00,
2012-03-30 09:03:00,42.8,21.3,29.94,ENE,62,0.0,1.0,42,0.00,,---,0.00,VWS V14.01,2012-03-30 15:03:00,
2012-03-30 09:08:00,44.2,22.0,29.93,ENE,62,0.0,0.0,41,0.00,,---,0.00,VWS V14.01,2012-03-30 15:08:00,
2012-03-30 09:13:00,46.2,22.0,29.91,ENE,62,0.0,0.0,38,0.00,,---,0.00,VWS V14.01,2012-03-30 15:13:00,
2012-03-30 09:18:00,48.3,21.9,29.89,ENE,62,0.0,0.0,35,0.00,,---,0.00,VWS V14.01,2012-03-30 15:18:00,
2012-03-30 09:23:00,49.4,21.5,29.89,ENE,62,0.0,0.0,33,0.00,,---,0.00,VWS V14.01,2012-03-30 15:23:00,
2012-03-30 09:28:00,49.9,22.0,29.87,ENE,62,0.0,0.0,33,0.00,,---,0.00,VWS V14.01,2012-03-30 15:28:00,
2012-03-30 09:33:00,50.6,21.9,29.86,ENE,61,0.0,0.0,32,0.00,,---,0.00,VWS V14.01,2012-03-30 15:33:00,
2012-03-30 09:38:00,51.2,21.6,29.86,ENE,61,0.0,1.0,31,0.00,,---,0.00,VWS V14.01,2012-03-30 15:38:00,
2012-03-30 09:43:00,51.8,22.1,29.84,ENE,62,0.0,1.0,31,0.00,,---,0.00,VWS V14.01,2012-03-30 15:43:00,
2012-03-30 09:48:00,53.1,23.3,29.84,ENE,61,0.0,1.0,31,0.00,,---,0.00,VWS V14.01,2012-03-30 15:48:00,
2012-03-30 09:53:00,54.7,21.4,29.82,ENE,61,0.0,4.0,27,0.00,,---,0.00,VWS V14.01,2012-03-30 15:53:00,
2012-03-30 09:58:00,55.5,21.2,29.82,ENE,62,2.0,4.0,26,0.00,,---,0.00,VWS V14.01,2012-03-30 15:58:00,
2012-03-30 10:03:00,56.2,20.9,29.82,ENE,61,0.0,4.0,25,0.00,,---,0.00,VWS V14.01,2012-03-30 16:03:00,
2012-03-30 10:08:00,56.9,20.5,29.81,ENE,62,0.0,1.0,24,0.00,,---,0.00,VWS V14.01,2012-03-30 16:08:00,
2012-03-30 10:13:00,57.7,22.1,29.81,ENE,61,1.0,1.0,25,0.00,,---,0.00,VWS V14.01,2012-03-30 16:13:00,
2012-03-30 10:18:00,57.5,21.0,29.80,ENE,62,0.0,4.0,24,0.00,,---,0.00,VWS V14.01,2012-03-30 16:18:00,
2012-03-30 10:23:00,58.0,21.4,29.81,ENE,61,1.0,1.0,24,0.00,,---,0.00,VWS V14.01,2012-03-30 16:23:00,
2012-03-30 10:28:00,59.0,21.3,29.79,ENE,62,1.0,2.0,23,0.00,,---,0.00,VWS V14.01,2012-03-30 16:28:00,
2012-03-30 10:33:00,59.0,22.3,29.79,ENE,62,0.0,1.0,24,0.00,,---,0.00,VWS V14.01,2012-03-30 16:33:00,
2012-03-30 10:38:00,59.6,21.8,29.80,ENE,61,0.0,1.0,23,0.00,,---,0.00,VWS V14.01,2012-03-30 16:38:00,
2012-03-30 10:43:00,59.7,21.9,29.80,ENE,61,0.0,1.0,23,0.00,,---,0.00,VWS V14.01,2012-03-30 16:43:00,
2012-03-30 10:48:00,59.9,22.0,29.80,ENE,62,0.0,2.0,23,0.00,,---,0.00,VWS V14.01,2012-03-30 16:48:00,
2012-03-30 10:53:00,60.3,22.4,29.80,ENE,62,2.0,2.0,23,0.00,,---,0.00,VWS V14.01,2012-03-30 16:53:00,
2012-03-30 10:58:00,59.0,21.3,29.79,ENE,62,1.0,6.0,23,0.00,,---,0.00,VWS V14.01,2012-03-30 16:58:00,
2012-03-30 11:03:00,58.4,20.8,29.78,ENE,62,0.0,5.0,23,0.00,,---,0.00,VWS V14.01,2012-03-30 17:03:00,
2012-03-30 11:09:00,58.6,20.9,29.78,ENE,62,2.0,4.0,23,0.00,,---,0.00,VWS V14.01,2012-03-30 17:09:00,
2012-03-30 11:13:00,58.3,20.7,29.78,ENE,61,1.0,6.0,23,0.00,,---,0.00,VWS V14.01,2012-03-30 17:13:00,
2012-03-30 11:19:00,59.0,21.3,29.78,ENE,61,4.0,5.0,23,0.00,,---,0.00,VWS V14.01,2012-03-30 17:19:00,
2012-03-30 11:24:00,58.4,20.8,29.77,ENE,61,0.0,8.0,23,0.00,,---,0.00,VWS V14.01,2012-03-30 17:24:00,
2012-03-30 11:29:00,58.3,20.7,29.78,ENE,62,2.0,6.0,23,0.00,,---,0.00,VWS V14.01,2012-03-30 17:29:00,
2012-03-30 11:34:00,58.2,20.6,29.77,ENE,61,8.0,8.0,23,0.00,,---,0.00,VWS V14.01,2012-03-30 17:34:00,
2012-03-30 11:39:00,57.9,20.4,29.77,ENE,62,0.0,2.0,23,0.00,,---,0.00,VWS V14.01,2012-03-30 17:39:00,
2012-03-30 11:40:00,58.0,21.4,29.77,ENE,62,0.0,2.0,24,0.00,,---,0.00,VWS V14.01,2012-03-30 17:40:00,
2012-03-30 11:45:00,59.0,21.3,29.76,ENE,61,5.0,6.0,23,0.00,,---,0.00,VWS V14.01,2012-03-30 17:45:00,
2012-03-30 11:50:00,59.7,20.8,29.75,ENE,61,2.0,6.0,22,0.00,,---,0.00,VWS V14.01,2012-03-30 17:50:00,
2012-03-30 11:55:00,60.6,21.6,29.75,ENE,62,5.0,7.0,22,0.00,,---,0.00,VWS V14.01,2012-03-30 17:55:00,
2012-03-30 12:00:00,60.9,21.8,29.74,ENE,62,0.0,1.0,22,0.00,,---,0.00,VWS V14.01,2012-03-30 18:00:00,
2012-03-30 12:05:00,61.2,22.1,29.72,ENE,61,3.0,9.0,22,0.00,,---,0.00,VWS V14.01,2012-03-30 18:05:00,
2012-03-30 12:11:00,61.8,22.6,29.72,ENE,61,0.0,6.0,22,0.00,,---,0.00,VWS V14.01,2012-03-30 18:11:00,
2012-03-30 12:16:00,61.5,22.3,29.72,ENE,73,5.0,9.0,22,0.00,,---,0.00,VWS V14.01,2012-03-30 18:16:00,
2012-03-30 12:21:00,61.1,22.0,29.72,ENE,72,2.0,4.0,22,0.00,,---,0.00,VWS V14.01,2012-03-30 18:21:00,
2012-03-30 12:26:00,61.1,22.0,29.72,ENE,73,3.0,5.0,22,0.00,,---,0.00,VWS V14.01,2012-03-30 18:26:00,
2012-03-30 12:31:00,61.4,21.1,29.72,ENE,72,3.0,7.0,21,0.00,,---,0.00,VWS V14.01,2012-03-30 18:31:00,
2012-03-30 12:36:00,60.6,21.6,29.72,ENE,65,2.0,4.0,22,0.00,,---,0.00,VWS V14.01,2012-03-30 18:36:00,
2012-03-30 12:41:00,60.2,21.2,29.73,ENE,64,0.0,5.0,22,0.00,,---,0.00,VWS V14.01,2012-03-30 18:41:00,
2012-03-30 12:46:00,60.2,21.2,29.73,ENE,65,0.0,1.0,22,0.00,,---,0.00,VWS V14.01,2012-03-30 18:46:00,
2012-03-30 12:51:00,61.1,22.0,29.72,ENE,65,0.0,0.0,22,0.00,,---,0.00,VWS V14.01,2012-03-30 18:51:00,
2012-03-30 12:56:00,62.3,21.9,29.72,ENE,65,1.0,7.0,21,0.00,,---,0.00,VWS V14.01,2012-03-30 18:56:00,
2012-03-30 13:02:00,61.4,21.1,29.71,SE,130,13.0,13.0,21,0.00,,---,0.00,VWS V14.01,2012-03-30 19:02:00,
2012-03-30 13:07:00,60.8,21.7,29.76,SE,140,6.0,6.0,22,0.00,,---,0.00,VWS V14.01,2012-03-30 19:07:00,
2012-03-30 13:12:00,60.4,21.4,29.75,SE,140,1.0,4.0,22,0.00,,---,0.00,VWS V14.01,2012-03-30 19:12:00,
2012-03-30 13:17:00,61.0,21.9,29.75,SE,140,0.0,2.0,22,0.00,,---,0.00,VWS V14.01,2012-03-30 19:17:00,
2012-03-30 13:22:00,61.3,22.2,29.75,SE,140,1.0,7.0,22,0.00,,---,0.00,VWS V14.01,2012-03-30 19:22:00,
2012-03-30 13:27:00,61.7,21.4,29.74,SE,138,3.0,4.0,21,0.00,,---,0.00,VWS V14.01,2012-03-30 19:27:00,
2012-03-30 13:32:00,62.2,21.8,29.74,SE,139,4.0,6.0,21,0.00,,---,0.00,VWS V14.01,2012-03-30 19:32:00,
2012-03-30 13:37:00,61.8,22.6,29.74,SE,138,0.0,0.0,22,0.00,,---,0.00,VWS V14.01,2012-03-30 19:37:00,
2012-03-30 13:42:00,62.8,22.3,29.73,SE,138,1.0,4.0,21,0.00,,---,0.00,VWS V14.01,2012-03-30 19:42:00,
2012-03-30 13:47:00,63.4,22.8,29.73,SE,138,1.0,4.0,21,0.00,,---,0.00,VWS V14.01,2012-03-30 19:47:00,
2012-03-30 13:52:00,63.9,23.2,29.72,SE,138,4.0,4.0,21,0.00,,---,0.00,VWS V14.01,2012-03-30 19:52:00,
2012-03-30 13:57:00,63.6,24.1,29.71,South,182,7.0,9.0,22,0.00,,---,0.00,VWS V14.01,2012-03-30 19:57:00,
2012-03-30 14:03:00,63.6,23.0,29.73,South,182,5.0,10.0,21,0.00,,---,0.00,VWS V14.01,2012-03-30 20:03:00,
2012-03-30 14:08:00,63.8,23.1,29.72,South,182,2.0,5.0,21,0.00,,---,0.00,VWS V14.01,2012-03-30 20:08:00,
2012-03-30 14:13:00,64.0,22.1,29.72,South,182,0.0,8.0,20,0.00,,---,0.00,VWS V14.01,2012-03-30 20:13:00,
2012-03-30 14:18:00,64.4,22.5,29.72,South,182,2.0,4.0,20,0.00,,---,0.00,VWS V14.01,2012-03-30 20:18:00,
2012-03-30 14:23:00,64.5,22.6,29.72,South,182,7.0,8.0,20,0.00,,---,0.00,VWS V14.01,2012-03-30 20:23:00,
2012-03-30 14:28:00,64.4,23.6,29.71,South,182,0.0,2.0,21,0.00,,---,0.00,VWS V14.01,2012-03-30 20:28:00,
2012-03-30 14:33:00,64.7,22.7,29.71,South,182,5.0,9.0,20,0.00,,---,0.00,VWS V14.01,2012-03-30 20:33:00,
2012-03-30 14:38:00,65.2,23.1,29.71,South,182,0.0,5.0,20,0.00,,---,0.00,VWS V14.01,2012-03-30 20:38:00,
2012-03-30 14:43:00,65.4,23.3,29.71,South,182,1.0,6.0,20,0.00,,---,0.00,VWS V14.01,2012-03-30 20:43:00,
2012-03-30 14:48:00,65.0,23.0,29.71,SSW,207,9.0,14.0,20,0.00,,---,0.00,VWS V14.01,2012-03-30 20:48:00,
2012-03-30 14:53:00,64.6,22.6,29.71,SSW,207,0.0,10.0,20,0.00,,---,0.00,VWS V14.01,2012-03-30 20:53:00,
2012-03-30 14:58:00,65.5,23.4,29.70,SSW,207,3.0,5.0,20,0.00,,---,0.00,VWS V14.01,2012-03-30 20:58:00,
2012-03-30 15:04:00,66.0,23.8,29.70,SW,223,9.0,14.0,20,0.00,,---,0.00,VWS V14.01,2012-03-30 21:04:00,
2012-03-30 15:09:00,65.5,23.4,29.70,SW,230,5.0,14.0,20,0.00,,---,0.00,VWS V14.01,2012-03-30 21:09:00,
2012-03-30 15:14:00,66.5,23.0,29.70,SW,229,5.0,14.0,19,0.00,,---,0.00,VWS V14.01,2012-03-30 21:14:00,
2012-03-30 15:19:00,65.8,22.4,29.69,SW,232,8.0,14.0,19,0.00,,---,0.00,VWS V14.01,2012-03-30 21:19:00,
2012-03-30 15:24:00,65.5,23.4,29.69,SW,232,2.0,12.0,20,0.00,,---,0.00,VWS V14.01,2012-03-30 21:24:00,
2012-03-30 15:29:00,65.8,22.4,29.69,SW,232,11.0,14.0,19,0.00,,---,0.00,VWS V14.01,2012-03-30 21:29:00,
2012-03-30 15:34:00,66.2,22.8,29.69,SW,232,9.0,12.0,19,0.00,,---,0.00,VWS V14.01,2012-03-30 21:34:00,
2012-03-30 15:39:00,65.9,23.7,29.69,WSW,238,9.0,19.0,20,0.00,,---,0.00,VWS V14.01,2012-03-30 21:39:00,
2012-03-30 15:44:00,65.4,23.3,29.69,WSW,238,8.0,12.0,20,0.00,,---,0.00,VWS V14.01,2012-03-30 21:44:00,
2012-03-30 15:49:00,65.3,23.2,29.69,SW,234,7.0,14.0,20,0.00,,---,0.00,VWS V14.01,2012-03-30 21:49:00,
2012-03-30 15:54:00,65.8,23.6,29.69,SW,232,7.0,13.0,20,0.00,,---,0.00,VWS V14.01,2012-03-30 21:54:00,
2012-03-30 15:59:00,65.4,22.1,29.69,WSW,251,5.0,12.0,19,0.00,,---,0.00,VWS V14.01,2012-03-30 21:59:00,
2012-03-30 16:04:00,65.6,23.5,29.67,WSW,251,3.0,11.0,20,0.00,,---,0.00,VWS V14.01,2012-03-30 22:04:00,
2012-03-30 16:09:00,65.7,22.3,29.67,WSW,252,6.0,16.0,19,0.00,,---,0.00,VWS V14.01,2012-03-30 22:09:00,
2012-03-30 16:14:00,65.4,22.1,29.67,WSW,254,11.0,14.0,19,0.00,,---,0.00,VWS V14.01,2012-03-30 22:14:00,
2012-03-30 16:19:00,65.0,23.0,29.67,WSW,253,13.0,13.0,20,0.00,,---,0.00,VWS V14.01,2012-03-30 22:19:00,
2012-03-30 16:24:00,64.8,22.8,29.67,WSW,253,7.0,14.0,20,0.00,,---,0.00,VWS V14.01,2012-03-30 22:24:00,
2012-03-30 16:29:00,65.4,23.3,29.67,WSW,253,9.0,11.0,20,0.00,,---,0.00,VWS V14.01,2012-03-30 22:29:00,
2012-03-30 16:34:00,65.9,24.9,29.67,WSW,254,10.0,12.0,21,0.00,,---,0.00,VWS V14.01,2012-03-30 22:34:00,
2012-03-30 16:39:00,65.6,23.5,29.67,WSW,257,12.0,19.0,20,0.00,,---,0.00,VWS V14.01,2012-03-30 22:39:00,
2012-03-30 16:44:00,65.7,24.7,29.67,WSW,251,11.0,15.0,21,0.00,,---,0.00,VWS V14.01,2012-03-30 22:44:00,
2012-03-30 16:49:00,65.8,23.6,29.67,SW,218,5.0,14.0,20,0.00,,---,0.00,VWS V14.01,2012-03-30 22:49:00,
2012-03-30 16:54:00,66.6,23.1,29.65,SW,221,12.0,12.0,19,0.00,,---,0.00,VWS V14.01,2012-03-30 22:54:00,
2012-03-30 16:59:00,65.8,22.4,29.67,SW,220,7.0,13.0,19,0.00,,---,0.00,VWS V14.01,2012-03-30 22:59:00,
2012-03-30 17:04:00,65.6,23.5,29.69,SW,218,6.0,14.0,20,0.00,,---,0.00,VWS V14.01,2012-03-30 23:04:00,
2012-03-30 17:09:00,66.1,23.9,29.68,WSW,238,8.0,14.0,20,0.00,,---,0.00,VWS V14.01,2012-03-30 23:09:00,
2012-03-30 17:14:00,66.4,24.1,29.68,WSW,240,5.0,14.0,20,0.00,,---,0.00,VWS V14.01,2012-03-30 23:14:00,
2012-03-30 17:19:00,66.6,24.3,29.69,WSW,240,9.0,14.0,20,0.00,,---,0.00,VWS V14.01,2012-03-30 23:19:00,
2012-03-30 17:24:00,66.4,22.9,29.69,WSW,240,7.0,13.0,19,0.00,,---,0.00,VWS V14.01,2012-03-30 23:24:00,
2012-03-30 17:29:00,66.2,22.8,29.68,WSW,248,7.0,14.0,19,0.00,,---,0.00,VWS V14.01,2012-03-30 23:29:00,
2012-03-30 17:34:00,66.0,22.6,29.69,WSW,250,10.0,15.0,19,0.00,,---,0.00,VWS V14.01,2012-03-30 23:34:00,
2012-03-30 17:39:00,66.2,24.0,29.69,WSW,250,13.0,13.0,20,0.00,,---,0.00,VWS V14.01,2012-03-30 23:39:00,
2012-03-30 17:44:00,66.1,22.7,29.69,WSW,237,5.0,14.0,19,0.00,,---,0.00,VWS V14.01,2012-03-30 23:44:00,
2012-03-30 17:49:00,65.7,23.6,29.69,SW,234,4.0,14.0,20,0.00,,---,0.00,VWS V14.01,2012-03-30 23:49:00,
2012-03-30 17:54:00,65.9,23.7,29.70,SW,234,5.0,12.0,20,0.00,,---,0.00,VWS V14.01,2012-03-30 23:54:00,
2012-03-30 17:59:00,65.7,23.6,29.69,SW,234,8.0,10.0,20,0.00,,---,0.00,VWS V14.01,2012-03-30 23:59:00,
2012-03-30 18:05:00,65.7,23.6,29.73,SW,234,8.0,12.0,20,0.00,,---,0.00,VWS V14.01,2012-03-31 00:05:00,
2012-03-30 18:10:00,65.6,23.5,29.73,SW,234,1.0,10.0,20,0.00,,---,0.00,VWS V14.01,2012-03-31 00:10:00,
2012-03-30 18:15:00,65.4,23.3,29.74,SW,232,7.0,16.0,20,0.00,,---,0.00,VWS V14.01,2012-03-31 00:15:00,
2012-03-30 18:20:00,64.9,22.9,29.75,SW,232,6.0,11.0,20,0.00,,---,0.00,VWS V14.01,2012-03-31 00:20:00,
2012-03-30 18:25:00,64.7,23.9,29.75,WSW,237,14.0,16.0,21,0.00,,---,0.00,VWS V14.01,2012-03-31 00:25:00,
2012-03-30 18:30:00,64.3,23.6,29.76,WSW,238,3.0,12.0,21,0.00,,---,0.00,VWS V14.01,2012-03-31 00:30:00,
2012-03-30 18:35:00,63.9,24.3,29.75,WSW,238,11.0,11.0,22,0.00,,---,0.00,VWS V14.01,2012-03-31 00:35:00,
2012-03-30 18:40:00,63.2,23.8,29.77,WSW,238,5.0,12.0,22,0.00,,---,0.00,VWS V14.01,2012-03-31 00:40:00,
2012-03-30 18:45:00,62.4,23.1,29.78,WSW,238,5.0,6.0,22,0.00,,---,0.00,VWS V14.01,2012-03-31 00:45:00,
2012-03-30 18:50:00,61.7,22.5,29.78,WSW,238,4.0,8.0,22,0.00,,---,0.00,VWS V14.01,2012-03-31 00:50:00,
2012-03-30 18:55:00,61.5,22.3,29.78,WSW,238,1.0,8.0,22,0.00,,---,0.00,VWS V14.01,2012-03-31 00:55:00,
2012-03-30 19:00:00,61.1,23.0,29.80,WSW,238,5.0,7.0,23,0.00,,---,0.00,VWS V14.01,2012-03-31 01:00:00,
2012-03-30 19:05:00,60.7,21.7,29.77,WSW,238,2.0,11.0,22,0.00,,---,0.00,VWS V14.01,2012-03-31 01:05:00,
2012-03-30 19:10:00,60.4,22.5,29.79,WSW,238,8.0,12.0,23,0.00,,---,0.00,VWS V14.01,2012-03-31 01:10:00,
2012-03-30 19:15:00,60.0,22.1,29.79,WSW,238,6.0,11.0,23,0.00,,---,0.00,VWS V14.01,2012-03-31 01:15:00,
2012-03-30 19:20:00,60.2,22.3,29.79,WSW,238,2.0,11.0,23,0.00,,---,0.00,VWS V14.01,2012-03-31 01:20:00,
2012-03-30 19:25:00,59.6,21.8,29.79,WSW,238,1.0,7.0,23,0.00,,---,0.00,VWS V14.01,2012-03-31 01:25:00,
2012-03-30 19:30:00,59.4,21.6,29.80,WSW,238,1.0,6.0,23,0.00,,---,0.00,VWS V14.01,2012-03-31 01:30:00,
2012-03-30 19:35:00,59.4,21.6,29.79,WSW,238,0.0,5.0,23,0.00,,---,0.00,VWS V14.01,2012-03-31 01:35:00,
2012-03-30 19:40:00,59.2,21.4,29.79,WSW,238,6.0,6.0,23,0.00,,---,0.00,VWS V14.01,2012-03-31 01:40:00,
2012-03-30 19:45:00,59.6,21.8,29.80,WSW,238,0.0,2.0,23,0.00,,---,0.00,VWS V14.01,2012-03-31 01:45:00,
2012-03-30 19:50:00,59.0,21.3,29.80,WSW,238,4.0,4.0,23,0.00,,---,0.00,VWS V14.01,2012-03-31 01:50:00,
2012-03-30 19:55:00,58.3,21.7,29.82,WSW,238,0.0,1.0,24,0.00,,---,0.00,VWS V14.01,2012-03-31 01:55:00,
2012-03-30 19:56:00,58.2,21.6,29.82,WSW,238,0.0,1.0,24,0.00,,---,0.00,VWS V14.01,2012-03-31 01:56:00,
2012-03-30 20:01:00,57.4,20.9,29.82,WSW,238,0.0,0.0,24,0.00,,---,0.00,VWS V14.01,2012-03-31 02:01:00,
2012-03-30 20:06:00,56.6,21.2,29.74,WSW,238,0.0,0.0,25,0.00,,---,0.00,VWS V14.01,2012-03-31 02:06:00,
2012-03-30 20:11:00,55.8,21.5,29.74,WSW,238,0.0,0.0,26,0.00,,---,0.00,VWS V14.01,2012-03-31 02:11:00,
2012-03-30 20:16:00,55.0,20.8,29.76,WSW,238,0.0,0.0,26,0.00,,---,0.00,VWS V14.01,2012-03-31 02:16:00,
2012-03-30 20:21:00,53.9,20.7,29.76,WSW,238,0.0,0.0,27,0.00,,---,0.00,VWS V14.01,2012-03-31 02:21:00,
2012-03-30 20:26:00,53.0,19.9,29.78,WSW,238,0.0,0.0,27,0.00,,---,0.00,VWS V14.01,2012-03-31 02:26:00,
2012-03-30 20:31:00,52.1,20.0,29.79,WSW,238,0.0,0.0,28,0.00,,---,0.00,VWS V14.01,2012-03-31 02:31:00,
2012-03-30 20:36:00,51.5,19.5,29.79,WSW,238,0.0,0.0,28,0.00,,---,0.00,VWS V14.01,2012-03-31 02:36:00,
2012-03-30 20:41:00,51.6,19.6,29.79,WSW,238,0.0,0.0,28,0.00,,---,0.00,VWS V14.01,2012-03-31 02:41:00,
2012-03-30 20:46:00,51.7,19.7,29.80,WSW,238,0.0,0.0,28,0.00,,---,0.00,VWS V14.01,2012-03-31 02:46:00,
2012-03-30 20:52:00,51.5,19.5,29.80,WSW,238,0.0,0.0,28,0.00,,---,0.00,VWS V14.01,2012-03-31 02:52:00,
2012-03-30 20:57:00,51.1,19.1,29.82,WSW,238,0.0,2.0,28,0.00,,---,0.00,VWS V14.01,2012-03-31 02:57:00,
2012-03-30 21:02:00,50.5,19.5,29.82,WSW,238,0.0,0.0,29,0.00,,---,0.00,VWS V14.01,2012-03-31 03:02:00,
2012-03-30 21:07:00,49.6,19.5,29.71,WSW,238,4.0,4.0,30,0.00,,---,0.00,VWS V14.01,2012-03-31 03:07:00,